sensor_id;sensor_type;location;lat;lon;timestamp;temperature;humidity
18105;DHT22;9179;50.968;3.134;2022-07-09T00:00:41;17.80;99.90
18105;DHT22;9179;50.968;3.134;2022-07-09T00:03:07;17.80;99.90
18105;DHT22;9179;50.968;3.134;2022-07-09T00:05:34;17.80;99.90
18105;DHT22;9179;50.968;3.134;2022-07-09T00:08:01;17.70;99.90
18105;DHT22;9179;50.968;3.134;2022-07-09T00:10:29;17.60;99.90
18105;DHT22;9179;50.968;3.134;2022-07-09T00:12:56;17.60;99.90
18105;DHT22;9179;50.968;3.134;2022-07-09T00:15:23;17.60;99.90
18105;DHT22;9179;50.968;3.134;2022-07-09T00:17:51;17.60;99.90
18105;DHT22;9179;50.968;3.134;2022-07-09T00:20:18;17.60;99.90
18105;DHT22;9179;50.968;3.134;2022-07-09T00:22:45;17.50;99.90
18105;DHT22;9179;50.968;3.134;2022-07-09T00:25:11;17.50;99.90
18105;DHT22;9179;50.968;3.134;2022-07-09T00:27:40;17.40;99.90
18105;DHT22;9179;50.968;3.134;2022-07-09T00:30:07;17.30;99.90
18105;DHT22;9179;50.968;3.134;2022-07-09T00:32:34;17.30;99.90
18105;DHT22;9179;50.968;3.134;2022-07-09T00:35:01;17.20;99.90
18105;DHT22;9179;50.968;3.134;2022-07-09T00:37:28;17.20;99.90
18105;DHT22;9179;50.968;3.134;2022-07-09T00:39:55;17.20;99.90
18105;DHT22;9179;50.968;3.134;2022-07-09T00:42:22;17.20;99.90
18105;DHT22;9179;50.968;3.134;2022-07-09T00:44:51;17.20;99.90
18105;DHT22;9179;50.968;3.134;2022-07-09T00:47:18;17.20;99.90
18105;DHT22;9179;50.968;3.134;2022-07-09T00:49:45;17.10;99.90
18105;DHT22;9179;50.968;3.134;2022-07-09T00:52:14;17.10;99.90
18105;DHT22;9179;50.968;3.134;2022-07-09T00:54:43;17.10;99.90
18105;DHT22;9179;50.968;3.134;2022-07-09T00:57:11;17.10;99.90
18105;DHT22;9179;50.968;3.134;2022-07-09T00:59:39;17.00;99.90
18105;DHT22;9179;50.968;3.134;2022-07-09T01:02:08;17.00;99.90
18105;DHT22;9179;50.968;3.134;2022-07-09T01:04:35;17.00;99.90
18105;DHT22;9179;50.968;3.134;2022-07-09T01:07:05;17.00;99.90
18105;DHT22;9179;50.968;3.134;2022-07-09T01:09:32;17.00;99.90
18105;DHT22;9179;50.968;3.134;2022-07-09T01:11:59;17.00;99.90
18105;DHT22;9179;50.968;3.134;2022-07-09T01:14:27;16.90;99.90
18105;DHT22;9179;50.968;3.134;2022-07-09T01:16:58;16.90;99.90
18105;DHT22;9179;50.968;3.134;2022-07-09T01:19:27;16.90;99.90
18105;DHT22;9179;50.968;3.134;2022-07-09T01:21:56;16.80;99.90
18105;DHT22;9179;50.968;3.134;2022-07-09T01:24:23;16.80;99.90
18105;DHT22;9179;50.968;3.134;2022-07-09T01:26:53;16.80;99.90
18105;DHT22;9179;50.968;3.134;2022-07-09T01:29:20;16.80;99.90
18105;DHT22;9179;50.968;3.134;2022-07-09T01:31:47;16.70;99.90
18105;DHT22;9179;50.968;3.134;2022-07-09T01:34:14;16.70;99.90
18105;DHT22;9179;50.968;3.134;2022-07-09T01:36:41;16.70;99.90
18105;DHT22;9179;50.968;3.134;2022-07-09T01:39:09;16.80;99.90
18105;DHT22;9179;50.968;3.134;2022-07-09T01:41:36;16.80;99.90
18105;DHT22;9179;50.968;3.134;2022-07-09T01:44:03;16.80;99.90
18105;DHT22;9179;50.968;3.134;2022-07-09T01:46:32;16.90;99.90
18105;DHT22;9179;50.968;3.134;2022-07-09T01:48:59;17.10;99.90
18105;DHT22;9179;50.968;3.134;2022-07-09T01:51:26;17.20;99.90
18105;DHT22;9179;50.968;3.134;2022-07-09T01:53:53;17.30;99.90
18105;DHT22;9179;50.968;3.134;2022-07-09T01:56:21;17.50;99.90
18105;DHT22;9179;50.968;3.134;2022-07-09T01:58:48;17.60;99.90
18105;DHT22;9179;50.968;3.134;2022-07-09T02:01:15;17.80;99.90
18105;DHT22;9179;50.968;3.134;2022-07-09T02:03:41;17.90;99.90
18105;DHT22;9179;50.968;3.134;2022-07-09T02:06:08;18.00;99.90
18105;DHT22;9179;50.968;3.134;2022-07-09T02:08:35;18.10;99.90
18105;DHT22;9179;50.968;3.134;2022-07-09T02:11:04;18.30;99.90
18105;DHT22;9179;50.968;3.134;2022-07-09T02:13:33;18.40;99.90
18105;DHT22;9179;50.968;3.134;2022-07-09T02:16:00;18.40;99.90
18105;DHT22;9179;50.968;3.134;2022-07-09T02:18:27;18.40;99.90
18105;DHT22;9179;50.968;3.134;2022-07-09T02:20:54;18.30;99.90
18105;DHT22;9179;50.968;3.134;2022-07-09T02:23:22;18.20;99.90
18105;DHT22;9179;50.968;3.134;2022-07-09T02:25:49;18.00;99.90
18105;DHT22;9179;50.968;3.134;2022-07-09T02:28:16;17.90;99.90
18105;DHT22;9179;50.968;3.134;2022-07-09T02:30:44;17.70;99.90
18105;DHT22;9179;50.968;3.134;2022-07-09T02:33:11;17.60;99.90
18105;DHT22;9179;50.968;3.134;2022-07-09T02:35:38;17.40;99.90
18105;DHT22;9179;50.968;3.134;2022-07-09T02:38:05;17.30;99.90
18105;DHT22;9179;50.968;3.134;2022-07-09T02:40:32;17.10;99.90
18105;DHT22;9179;50.968;3.134;2022-07-09T02:42:58;17.00;99.90
18105;DHT22;9179;50.968;3.134;2022-07-09T02:45:25;16.90;99.90
18105;DHT22;9179;50.968;3.134;2022-07-09T02:47:54;16.90;99.90
18105;DHT22;9179;50.968;3.134;2022-07-09T02:50:21;16.80;99.90
18105;DHT22;9179;50.968;3.134;2022-07-09T02:52:47;16.70;99.90
18105;DHT22;9179;50.968;3.134;2022-07-09T02:55:14;16.70;99.90
18105;DHT22;9179;50.968;3.134;2022-07-09T02:57:41;16.60;99.90
18105;DHT22;9179;50.968;3.134;2022-07-09T03:00:09;16.70;99.90
18105;DHT22;9179;50.968;3.134;2022-07-09T03:02:36;16.60;99.90
18105;DHT22;9179;50.968;3.134;2022-07-09T03:05:05;16.60;99.90
18105;DHT22;9179;50.968;3.134;2022-07-09T03:07:32;16.50;99.90
18105;DHT22;9179;50.968;3.134;2022-07-09T03:09:59;16.50;99.90
18105;DHT22;9179;50.968;3.134;2022-07-09T03:12:25;16.40;99.90
18105;DHT22;9179;50.968;3.134;2022-07-09T03:14:52;16.40;99.90
18105;DHT22;9179;50.968;3.134;2022-07-09T03:17:19;16.40;99.90
18105;DHT22;9179;50.968;3.134;2022-07-09T03:19:46;16.40;99.90
18105;DHT22;9179;50.968;3.134;2022-07-09T03:22:14;16.40;99.90
18105;DHT22;9179;50.968;3.134;2022-07-09T03:24:41;16.50;99.90
18105;DHT22;9179;50.968;3.134;2022-07-09T03:27:08;16.50;99.90
18105;DHT22;9179;50.968;3.134;2022-07-09T03:29:35;16.50;99.90
18105;DHT22;9179;50.968;3.134;2022-07-09T03:32:02;16.50;99.90
18105;DHT22;9179;50.968;3.134;2022-07-09T03:34:29;16.50;99.90
18105;DHT22;9179;50.968;3.134;2022-07-09T03:36:56;16.50;99.90
18105;DHT22;9179;50.968;3.134;2022-07-09T03:39:24;16.50;99.90
18105;DHT22;9179;50.968;3.134;2022-07-09T03:41:51;16.50;99.90
18105;DHT22;9179;50.968;3.134;2022-07-09T03:44:18;16.40;99.90
18105;DHT22;9179;50.968;3.134;2022-07-09T03:46:45;16.40;99.90
18105;DHT22;9179;50.968;3.134;2022-07-09T03:49:12;16.40;99.90
18105;DHT22;9179;50.968;3.134;2022-07-09T03:51:39;16.40;99.90
18105;DHT22;9179;50.968;3.134;2022-07-09T03:54:06;16.40;99.90
18105;DHT22;9179;50.968;3.134;2022-07-09T03:56:34;16.40;99.90
18105;DHT22;9179;50.968;3.134;2022-07-09T03:59:01;16.50;99.90
18105;DHT22;9179;50.968;3.134;2022-07-09T04:01:28;16.50;99.90
18105;DHT22;9179;50.968;3.134;2022-07-09T04:03:55;16.50;99.90
18105;DHT22;9179;50.968;3.134;2022-07-09T04:06:22;16.50;99.90
18105;DHT22;9179;50.968;3.134;2022-07-09T04:08:48;16.60;99.90
18105;DHT22;9179;50.968;3.134;2022-07-09T04:11:15;16.60;99.90
18105;DHT22;9179;50.968;3.134;2022-07-09T04:13:44;16.70;99.90
18105;DHT22;9179;50.968;3.134;2022-07-09T04:16:10;16.70;99.90
18105;DHT22;9179;50.968;3.134;2022-07-09T04:18:37;16.70;99.90
18105;DHT22;9179;50.968;3.134;2022-07-09T04:21:08;16.80;99.90
18105;DHT22;9179;50.968;3.134;2022-07-09T04:23:35;16.90;99.90
18105;DHT22;9179;50.968;3.134;2022-07-09T04:26:02;17.00;99.90
18105;DHT22;9179;50.968;3.134;2022-07-09T04:28:29;17.00;99.90
18105;DHT22;9179;50.968;3.134;2022-07-09T04:30:57;17.10;99.90
18105;DHT22;9179;50.968;3.134;2022-07-09T04:33:24;17.20;99.90
18105;DHT22;9179;50.968;3.134;2022-07-09T04:35:52;17.30;99.90
18105;DHT22;9179;50.968;3.134;2022-07-09T04:38:19;17.50;99.90
18105;DHT22;9179;50.968;3.134;2022-07-09T04:40:46;17.80;99.90
18105;DHT22;9179;50.968;3.134;2022-07-09T04:43:13;18.20;99.90
18105;DHT22;9179;50.968;3.134;2022-07-09T04:45:40;18.70;99.90
18105;DHT22;9179;50.968;3.134;2022-07-09T04:48:08;19.10;99.90
18105;DHT22;9179;50.968;3.134;2022-07-09T04:50:49;19.60;99.90
18105;DHT22;9179;50.968;3.134;2022-07-09T04:53:17;20.00;99.90
18105;DHT22;9179;50.968;3.134;2022-07-09T04:55:44;20.40;99.90
18105;DHT22;9179;50.968;3.134;2022-07-09T04:58:11;20.80;99.90
18105;DHT22;9179;50.968;3.134;2022-07-09T05:00:40;21.20;99.90
18105;DHT22;9179;50.968;3.134;2022-07-09T05:03:09;21.60;99.90
18105;DHT22;9179;50.968;3.134;2022-07-09T05:05:36;22.00;99.90
18105;DHT22;9179;50.968;3.134;2022-07-09T05:08:03;22.30;99.90
18105;DHT22;9179;50.968;3.134;2022-07-09T05:10:30;22.70;99.90
18105;DHT22;9179;50.968;3.134;2022-07-09T05:12:57;23.00;99.90
18105;DHT22;9179;50.968;3.134;2022-07-09T05:15:24;23.30;99.90
18105;DHT22;9179;50.968;3.134;2022-07-09T05:17:51;23.60;99.90
18105;DHT22;9179;50.968;3.134;2022-07-09T05:20:19;23.80;99.90
18105;DHT22;9179;50.968;3.134;2022-07-09T05:22:46;23.40;99.90
18105;DHT22;9179;50.968;3.134;2022-07-09T05:25:13;23.50;99.90
18105;DHT22;9179;50.968;3.134;2022-07-09T05:27:41;23.90;99.90
18105;DHT22;9179;50.968;3.134;2022-07-09T05:30:09;24.10;99.90
18105;DHT22;9179;50.968;3.134;2022-07-09T05:32:36;24.20;99.90
18105;DHT22;9179;50.968;3.134;2022-07-09T05:35:04;24.60;99.90
18105;DHT22;9179;50.968;3.134;2022-07-09T05:37:33;24.90;99.90
18105;DHT22;9179;50.968;3.134;2022-07-09T05:40:00;25.10;99.90
18105;DHT22;9179;50.968;3.134;2022-07-09T05:42:31;25.40;99.90
18105;DHT22;9179;50.968;3.134;2022-07-09T05:44:58;26.00;99.90
18105;DHT22;9179;50.968;3.134;2022-07-09T05:47:25;26.20;99.90
18105;DHT22;9179;50.968;3.134;2022-07-09T05:49:52;26.10;99.90
18105;DHT22;9179;50.968;3.134;2022-07-09T05:52:18;25.90;99.90
18105;DHT22;9179;50.968;3.134;2022-07-09T05:54:47;26.40;99.90
18105;DHT22;9179;50.968;3.134;2022-07-09T05:57:14;27.10;99.90
18105;DHT22;9179;50.968;3.134;2022-07-09T05:59:41;27.20;99.90
18105;DHT22;9179;50.968;3.134;2022-07-09T06:02:08;27.10;99.90
18105;DHT22;9179;50.968;3.134;2022-07-09T06:04:34;27.50;99.90
18105;DHT22;9179;50.968;3.134;2022-07-09T06:07:01;27.90;99.90
18105;DHT22;9179;50.968;3.134;2022-07-09T06:09:29;27.10;99.90
18105;DHT22;9179;50.968;3.134;2022-07-09T06:11:57;26.20;99.90
18105;DHT22;9179;50.968;3.134;2022-07-09T06:14:25;26.40;99.90
18105;DHT22;9179;50.968;3.134;2022-07-09T06:16:51;27.10;99.90
18105;DHT22;9179;50.968;3.134;2022-07-09T06:19:21;27.60;99.90
18105;DHT22;9179;50.968;3.134;2022-07-09T06:21:48;27.70;99.90
18105;DHT22;9179;50.968;3.134;2022-07-09T06:24:15;27.50;99.90
18105;DHT22;9179;50.968;3.134;2022-07-09T06:26:42;27.30;99.90
18105;DHT22;9179;50.968;3.134;2022-07-09T06:29:13;27.50;99.90
18105;DHT22;9179;50.968;3.134;2022-07-09T06:31:41;27.70;99.90
18105;DHT22;9179;50.968;3.134;2022-07-09T06:34:08;27.60;99.90
18105;DHT22;9179;50.968;3.134;2022-07-09T06:36:36;28.00;99.90
18105;DHT22;9179;50.968;3.134;2022-07-09T06:39:09;28.50;99.90
18105;DHT22;9179;50.968;3.134;2022-07-09T06:41:53;28.30;99.90
18105;DHT22;9179;50.968;3.134;2022-07-09T06:44:21;27.40;99.90
18105;DHT22;9179;50.968;3.134;2022-07-09T06:46:48;27.20;99.90
18105;DHT22;9179;50.968;3.134;2022-07-09T06:49:15;27.80;99.90
18105;DHT22;9179;50.968;3.134;2022-07-09T06:51:42;27.90;99.90
18105;DHT22;9179;50.968;3.134;2022-07-09T06:54:09;27.90;99.90
18105;DHT22;9179;50.968;3.134;2022-07-09T06:56:36;28.40;99.90
18105;DHT22;9179;50.968;3.134;2022-07-09T06:59:03;28.90;99.90
18105;DHT22;9179;50.968;3.134;2022-07-09T07:01:31;28.90;99.90
18105;DHT22;9179;50.968;3.134;2022-07-09T07:04:03;28.40;99.90
18105;DHT22;9179;50.968;3.134;2022-07-09T07:06:30;28.50;99.90
18105;DHT22;9179;50.968;3.134;2022-07-09T07:08:57;28.50;99.90
18105;DHT22;9179;50.968;3.134;2022-07-09T07:11:24;28.90;99.90
18105;DHT22;9179;50.968;3.134;2022-07-09T07:13:51;28.60;99.70
18105;DHT22;9179;50.968;3.134;2022-07-09T07:16:18;28.50;99.90
18105;DHT22;9179;50.968;3.134;2022-07-09T07:18:47;28.70;99.70
18105;DHT22;9179;50.968;3.134;2022-07-09T07:21:19;28.80;99.90
18105;DHT22;9179;50.968;3.134;2022-07-09T07:23:47;29.60;98.60
18105;DHT22;9179;50.968;3.134;2022-07-09T07:26:14;28.60;98.20
18105;DHT22;9179;50.968;3.134;2022-07-09T07:28:41;28.10;99.50
18105;DHT22;9179;50.968;3.134;2022-07-09T07:31:08;28.10;99.70
18105;DHT22;9179;50.968;3.134;2022-07-09T07:33:35;27.80;99.90
18105;DHT22;9179;50.968;3.134;2022-07-09T07:36:04;28.10;99.70
18105;DHT22;9179;50.968;3.134;2022-07-09T07:38:31;28.60;99.70
18105;DHT22;9179;50.968;3.134;2022-07-09T07:40:57;28.60;98.60
18105;DHT22;9179;50.968;3.134;2022-07-09T07:43:25;28.60;98.00
18105;DHT22;9179;50.968;3.134;2022-07-09T07:45:52;28.10;98.60
18105;DHT22;9179;50.968;3.134;2022-07-09T07:48:19;28.00;98.90
18105;DHT22;9179;50.968;3.134;2022-07-09T07:50:46;28.10;98.30
18105;DHT22;9179;50.968;3.134;2022-07-09T07:53:14;27.90;97.70
18105;DHT22;9179;50.968;3.134;2022-07-09T07:55:43;28.00;97.40
18105;DHT22;9179;50.968;3.134;2022-07-09T07:58:10;28.80;97.00
18105;DHT22;9179;50.968;3.134;2022-07-09T08:00:37;29.30;95.40
18105;DHT22;9179;50.968;3.134;2022-07-09T08:03:04;29.90;94.10
18105;DHT22;9179;50.968;3.134;2022-07-09T08:05:33;29.70;93.80
18105;DHT22;9179;50.968;3.134;2022-07-09T08:08:02;29.70;92.80
18105;DHT22;9179;50.968;3.134;2022-07-09T08:10:31;30.00;92.40
18105;DHT22;9179;50.968;3.134;2022-07-09T08:12:58;30.80;91.30
18105;DHT22;9179;50.968;3.134;2022-07-09T08:15:25;30.70;90.50
18105;DHT22;9179;50.968;3.134;2022-07-09T08:17:52;30.60;90.10
18105;DHT22;9179;50.968;3.134;2022-07-09T08:20:19;30.40;90.00
18105;DHT22;9179;50.968;3.134;2022-07-09T08:22:46;31.30;88.80
18105;DHT22;9179;50.968;3.134;2022-07-09T08:25:12;31.90;84.80
18105;DHT22;9179;50.968;3.134;2022-07-09T08:27:41;31.60;83.60
18105;DHT22;9179;50.968;3.134;2022-07-09T08:30:09;31.30;83.20
18105;DHT22;9179;50.968;3.134;2022-07-09T08:32:36;31.30;82.40
18105;DHT22;9179;50.968;3.134;2022-07-09T08:35:04;31.50;81.60
18105;DHT22;9179;50.968;3.134;2022-07-09T08:37:31;31.40;79.00
18105;DHT22;9179;50.968;3.134;2022-07-09T08:39:59;31.00;79.20
18105;DHT22;9179;50.968;3.134;2022-07-09T08:42:27;30.90;80.00
18105;DHT22;9179;50.968;3.134;2022-07-09T08:44:55;30.60;80.20
18105;DHT22;9179;50.968;3.134;2022-07-09T08:47:24;30.70;80.30
18105;DHT22;9179;50.968;3.134;2022-07-09T08:49:55;31.10;79.20
18105;DHT22;9179;50.968;3.134;2022-07-09T08:52:23;31.40;78.40
18105;DHT22;9179;50.968;3.134;2022-07-09T08:54:53;31.40;77.10
18105;DHT22;9179;50.968;3.134;2022-07-09T08:57:20;31.60;77.50
18105;DHT22;9179;50.968;3.134;2022-07-09T08:59:47;32.70;76.80
18105;DHT22;9179;50.968;3.134;2022-07-09T09:02:15;33.50;74.30
18105;DHT22;9179;50.968;3.134;2022-07-09T09:04:46;32.30;73.50
18105;DHT22;9179;50.968;3.134;2022-07-09T09:07:15;31.10;76.70
18105;DHT22;9179;50.968;3.134;2022-07-09T09:09:42;31.70;76.60
18105;DHT22;9179;50.968;3.134;2022-07-09T09:12:09;32.50;74.00
18105;DHT22;9179;50.968;3.134;2022-07-09T09:14:36;31.70;74.30
18105;DHT22;9179;50.968;3.134;2022-07-09T09:17:07;30.20;77.40
18105;DHT22;9179;50.968;3.134;2022-07-09T09:19:41;30.00;79.90
18105;DHT22;9179;50.968;3.134;2022-07-09T09:22:08;31.20;78.70
18105;DHT22;9179;50.968;3.134;2022-07-09T09:24:37;30.70;78.30
18105;DHT22;9179;50.968;3.134;2022-07-09T09:27:05;29.00;80.50
18105;DHT22;9179;50.968;3.134;2022-07-09T09:29:32;29.10;84.20
18105;DHT22;9179;50.968;3.134;2022-07-09T09:32:08;30.20;81.30
18105;DHT22;9179;50.968;3.134;2022-07-09T09:34:35;31.20;78.30
18105;DHT22;9179;50.968;3.134;2022-07-09T09:37:04;31.90;76.40
18105;DHT22;9179;50.968;3.134;2022-07-09T09:39:31;31.40;74.80
18105;DHT22;9179;50.968;3.134;2022-07-09T09:42:00;29.30;76.90
18105;DHT22;9179;50.968;3.134;2022-07-09T09:44:29;29.70;79.90
18105;DHT22;9179;50.968;3.134;2022-07-09T09:46:58;31.00;78.00
18105;DHT22;9179;50.968;3.134;2022-07-09T09:49:25;31.70;75.40
18105;DHT22;9179;50.968;3.134;2022-07-09T09:51:57;30.60;74.90
18105;DHT22;9179;50.968;3.134;2022-07-09T09:54:28;30.20;76.90
18105;DHT22;9179;50.968;3.134;2022-07-09T09:56:55;31.20;75.30
18105;DHT22;9179;50.968;3.134;2022-07-09T09:59:25;30.90;74.40
18105;DHT22;9179;50.968;3.134;2022-07-09T10:01:52;30.80;73.60
18105;DHT22;9179;50.968;3.134;2022-07-09T10:04:19;31.80;73.70
18105;DHT22;9179;50.968;3.134;2022-07-09T10:06:47;31.40;71.80
18105;DHT22;9179;50.968;3.134;2022-07-09T10:09:14;30.30;73.50
18105;DHT22;9179;50.968;3.134;2022-07-09T10:11:45;30.80;74.50
18105;DHT22;9179;50.968;3.134;2022-07-09T10:14:16;31.60;71.90
18105;DHT22;9179;50.968;3.134;2022-07-09T10:16:43;31.30;72.90
18105;DHT22;9179;50.968;3.134;2022-07-09T10:19:20;31.00;72.80
18105;DHT22;9179;50.968;3.134;2022-07-09T10:21:52;29.90;74.00
18105;DHT22;9179;50.968;3.134;2022-07-09T10:24:24;31.70;73.80
18105;DHT22;9179;50.968;3.134;2022-07-09T10:26:52;33.10;69.50
18105;DHT22;9179;50.968;3.134;2022-07-09T10:29:28;31.70;69.90
18105;DHT22;9179;50.968;3.134;2022-07-09T10:31:56;29.60;72.90
18105;DHT22;9179;50.968;3.134;2022-07-09T10:34:51;29.50;75.60
18105;DHT22;9179;50.968;3.134;2022-07-09T10:37:30;31.50;73.90
18105;DHT22;9179;50.968;3.134;2022-07-09T10:40:07;31.90;70.90
18105;DHT22;9179;50.968;3.134;2022-07-09T10:42:36;31.90;69.90
18105;DHT22;9179;50.968;3.134;2022-07-09T10:45:24;31.50;70.30
18105;DHT22;9179;50.968;3.134;2022-07-09T10:47:53;31.60;70.90
18105;DHT22;9179;50.968;3.134;2022-07-09T10:50:20;31.90;69.80
18105;DHT22;9179;50.968;3.134;2022-07-09T10:52:48;31.30;69.50
18105;DHT22;9179;50.968;3.134;2022-07-09T10:55:16;31.80;69.30
18105;DHT22;9179;50.968;3.134;2022-07-09T10:57:45;31.00;69.80
18105;DHT22;9179;50.968;3.134;2022-07-09T11:00:16;31.90;69.80
18105;DHT22;9179;50.968;3.134;2022-07-09T11:02:57;30.80;70.50
18105;DHT22;9179;50.968;3.134;2022-07-09T11:05:25;30.20;71.30
18105;DHT22;9179;50.968;3.134;2022-07-09T11:08:00;29.30;73.50
18105;DHT22;9179;50.968;3.134;2022-07-09T11:10:29;28.60;76.20
18105;DHT22;9179;50.968;3.134;2022-07-09T11:12:58;28.60;76.90
18105;DHT22;9179;50.968;3.134;2022-07-09T11:15:27;28.40;77.50
18105;DHT22;9179;50.968;3.134;2022-07-09T11:17:59;27.90;78.40
18105;DHT22;9179;50.968;3.134;2022-07-09T11:20:27;27.80;78.60
18105;DHT22;9179;50.968;3.134;2022-07-09T11:22:55;27.40;79.90
18105;DHT22;9179;50.968;3.134;2022-07-09T11:25:23;27.50;80.10
18105;DHT22;9179;50.968;3.134;2022-07-09T11:27:53;28.00;79.20
18105;DHT22;9179;50.968;3.134;2022-07-09T11:30:22;28.20;79.40
18105;DHT22;9179;50.968;3.134;2022-07-09T11:32:49;28.50;77.80
18105;DHT22;9179;50.968;3.134;2022-07-09T11:35:27;28.60;78.20
18105;DHT22;9179;50.968;3.134;2022-07-09T11:37:54;28.10;79.40
18105;DHT22;9179;50.968;3.134;2022-07-09T11:40:21;27.50;81.00
18105;DHT22;9179;50.968;3.134;2022-07-09T11:42:48;27.00;82.10
18105;DHT22;9179;50.968;3.134;2022-07-09T11:45:21;27.00;81.80
18105;DHT22;9179;50.968;3.134;2022-07-09T11:47:48;27.40;81.70
18105;DHT22;9179;50.968;3.134;2022-07-09T11:50:17;27.70;80.80
18105;DHT22;9179;50.968;3.134;2022-07-09T11:52:46;27.20;80.10
18105;DHT22;9179;50.968;3.134;2022-07-09T11:55:15;27.10;81.50
18105;DHT22;9179;50.968;3.134;2022-07-09T11:57:51;29.00;79.10
18105;DHT22;9179;50.968;3.134;2022-07-09T12:00:26;29.90;74.60
18105;DHT22;9179;50.968;3.134;2022-07-09T12:02:54;29.60;73.90
18105;DHT22;9179;50.968;3.134;2022-07-09T12:05:27;30.00;72.70
18105;DHT22;9179;50.968;3.134;2022-07-09T12:07:56;29.40;72.60
18105;DHT22;9179;50.968;3.134;2022-07-09T12:10:28;30.00;72.70
18105;DHT22;9179;50.968;3.134;2022-07-09T12:12:56;29.30;71.90
18105;DHT22;9179;50.968;3.134;2022-07-09T12:15:25;28.60;72.60
18105;DHT22;9179;50.968;3.134;2022-07-09T12:17:53;28.70;72.60
18105;DHT22;9179;50.968;3.134;2022-07-09T12:20:21;28.60;73.60
18105;DHT22;9179;50.968;3.134;2022-07-09T12:22:48;29.90;71.80
18105;DHT22;9179;50.968;3.134;2022-07-09T12:25:15;30.40;69.90
18105;DHT22;9179;50.968;3.134;2022-07-09T12:27:42;29.80;69.20
18105;DHT22;9179;50.968;3.134;2022-07-09T12:30:10;28.30;70.00
18105;DHT22;9179;50.968;3.134;2022-07-09T12:32:39;27.90;72.10
18105;DHT22;9179;50.968;3.134;2022-07-09T12:35:07;27.30;73.20
18105;DHT22;9179;50.968;3.134;2022-07-09T12:37:35;26.80;73.80
18105;DHT22;9179;50.968;3.134;2022-07-09T12:40:02;26.70;74.70
18105;DHT22;9179;50.968;3.134;2022-07-09T12:42:30;26.40;75.60
18105;DHT22;9179;50.968;3.134;2022-07-09T12:44:57;26.50;76.00
18105;DHT22;9179;50.968;3.134;2022-07-09T12:47:25;28.40;72.90
18105;DHT22;9179;50.968;3.134;2022-07-09T12:49:53;28.20;71.50
18105;DHT22;9179;50.968;3.134;2022-07-09T12:52:20;28.50;71.40
18105;DHT22;9179;50.968;3.134;2022-07-09T12:54:47;30.10;70.00
18105;DHT22;9179;50.968;3.134;2022-07-09T12:57:14;29.30;67.80
18105;DHT22;9179;50.968;3.134;2022-07-09T12:59:41;28.40;69.80
18105;DHT22;9179;50.968;3.134;2022-07-09T13:02:08;28.00;71.50
18105;DHT22;9179;50.968;3.134;2022-07-09T13:04:36;30.10;69.70
18105;DHT22;9179;50.968;3.134;2022-07-09T13:07:05;28.70;68.50
18105;DHT22;9179;50.968;3.134;2022-07-09T13:09:33;29.00;69.90
18105;DHT22;9179;50.968;3.134;2022-07-09T13:12:00;28.30;69.50
18105;DHT22;9179;50.968;3.134;2022-07-09T13:14:27;27.80;71.60
18105;DHT22;9179;50.968;3.134;2022-07-09T13:17:02;29.10;71.00
18105;DHT22;9179;50.968;3.134;2022-07-09T13:19:32;30.20;66.70
18105;DHT22;9179;50.968;3.134;2022-07-09T13:22:00;30.10;67.10
18105;DHT22;9179;50.968;3.134;2022-07-09T13:24:28;30.90;65.00
18105;DHT22;9179;50.968;3.134;2022-07-09T13:26:55;31.90;63.20
18105;DHT22;9179;50.968;3.134;2022-07-09T13:29:22;32.20;61.60
18105;DHT22;9179;50.968;3.134;2022-07-09T13:31:49;32.40;60.10
18105;DHT22;9179;50.968;3.134;2022-07-09T13:34:15;32.50;60.00
18105;DHT22;9179;50.968;3.134;2022-07-09T13:36:43;32.60;59.70
18105;DHT22;9179;50.968;3.134;2022-07-09T13:39:10;32.60;59.50
18105;DHT22;9179;50.968;3.134;2022-07-09T13:41:38;33.60;59.20
18105;DHT22;9179;50.968;3.134;2022-07-09T13:44:05;34.30;58.50
18105;DHT22;9179;50.968;3.134;2022-07-09T13:46:33;35.10;57.10
18105;DHT22;9179;50.968;3.134;2022-07-09T13:49:00;35.90;56.50
18105;DHT22;9179;50.968;3.134;2022-07-09T13:51:27;35.70;55.20
18105;DHT22;9179;50.968;3.134;2022-07-09T13:53:55;34.90;55.80
18105;DHT22;9179;50.968;3.134;2022-07-09T13:56:22;34.90;55.60
18105;DHT22;9179;50.968;3.134;2022-07-09T13:58:51;34.40;55.90
18105;DHT22;9179;50.968;3.134;2022-07-09T14:01:18;34.60;55.90
18105;DHT22;9179;50.968;3.134;2022-07-09T14:03:46;34.20;55.30
18105;DHT22;9179;50.968;3.134;2022-07-09T14:06:13;32.30;58.20
18105;DHT22;9179;50.968;3.134;2022-07-09T14:08:41;31.00;60.60
18105;DHT22;9179;50.968;3.134;2022-07-09T14:11:10;32.00;60.70
18105;DHT22;9179;50.968;3.134;2022-07-09T14:13:37;32.50;58.80
18105;DHT22;9179;50.968;3.134;2022-07-09T14:16:06;30.80;61.80
18105;DHT22;9179;50.968;3.134;2022-07-09T14:18:33;29.70;62.60
18105;DHT22;9179;50.968;3.134;2022-07-09T14:20:59;29.10;65.70
18105;DHT22;9179;50.968;3.134;2022-07-09T14:23:26;30.90;62.90
18105;DHT22;9179;50.968;3.134;2022-07-09T14:25:54;31.50;60.50
18105;DHT22;9179;50.968;3.134;2022-07-09T14:28:20;32.40;59.00
18105;DHT22;9179;50.968;3.134;2022-07-09T14:30:47;33.20;58.10
18105;DHT22;9179;50.968;3.134;2022-07-09T14:33:15;34.60;56.90
18105;DHT22;9179;50.968;3.134;2022-07-09T14:35:42;34.50;54.80
18105;DHT22;9179;50.968;3.134;2022-07-09T14:38:09;32.90;57.50
18105;DHT22;9179;50.968;3.134;2022-07-09T14:40:36;32.90;58.20
18105;DHT22;9179;50.968;3.134;2022-07-09T14:43:03;33.60;56.90
18105;DHT22;9179;50.968;3.134;2022-07-09T14:45:31;35.50;55.10
18105;DHT22;9179;50.968;3.134;2022-07-09T14:47:58;35.80;54.20
18105;DHT22;9179;50.968;3.134;2022-07-09T14:50:26;37.50;52.50
18105;DHT22;9179;50.968;3.134;2022-07-09T14:52:53;37.90;51.20
18105;DHT22;9179;50.968;3.134;2022-07-09T14:55:21;37.80;50.30
18105;DHT22;9179;50.968;3.134;2022-07-09T14:57:48;35.80;51.90
18105;DHT22;9179;50.968;3.134;2022-07-09T15:00:15;33.70;54.70
18105;DHT22;9179;50.968;3.134;2022-07-09T15:02:42;30.50;58.90
18105;DHT22;9179;50.968;3.134;2022-07-09T15:05:09;28.00;64.40
18105;DHT22;9179;50.968;3.134;2022-07-09T15:07:37;29.60;62.70
18105;DHT22;9179;50.968;3.134;2022-07-09T15:10:05;28.60;63.70
18105;DHT22;9179;50.968;3.134;2022-07-09T15:12:32;26.60;68.50
18105;DHT22;9179;50.968;3.134;2022-07-09T15:14:59;25.50;72.00
18105;DHT22;9179;50.968;3.134;2022-07-09T15:17:26;25.30;72.90
18105;DHT22;9179;50.968;3.134;2022-07-09T15:19:53;28.00;68.40
18105;DHT22;9179;50.968;3.134;2022-07-09T15:22:20;27.90;67.30
18105;DHT22;9179;50.968;3.134;2022-07-09T15:24:48;27.10;68.60
18105;DHT22;9179;50.968;3.134;2022-07-09T15:27:15;26.10;71.20
18105;DHT22;9179;50.968;3.134;2022-07-09T15:29:42;25.50;72.20
18105;DHT22;9179;50.968;3.134;2022-07-09T15:32:09;24.90;75.60
18105;DHT22;9179;50.968;3.134;2022-07-09T15:34:38;25.90;74.10
18105;DHT22;9179;50.968;3.134;2022-07-09T15:37:05;28.50;69.80
18105;DHT22;9179;50.968;3.134;2022-07-09T15:39:32;32.10;62.30
18105;DHT22;9179;50.968;3.134;2022-07-09T15:42:02;33.60;58.70
18105;DHT22;9179;50.968;3.134;2022-07-09T15:44:29;35.20;56.00
18105;DHT22;9179;50.968;3.134;2022-07-09T15:46:56;36.10;54.50
18105;DHT22;9179;50.968;3.134;2022-07-09T15:49:23;36.80;52.80